Airfield :







YOU CAN JOIN US ON...

 
LOGIN :

Register | Disclaimer

   EN    FR    IT 

 









Legend :    VFR   Marginal VFR   IFR   Intensive IFR   Very Intensive IFR
Visi :
Ceiling :
>= 8 km
>= 3000ft
5 to 8 km
1000 to 3000 ft
1500m to 5 km
500 to 1000 ft
800 to 1500m
200 to 500 ft
< 800m
< 200 ft
Symbols :   Thunderstorms  Fog  Heavy snow  Heavy precipitations  Wind > 20 kt






- Airport Elevation : 1663 ft
- IATA code : SLK


KSLK - Adirondack Regional

CURRENT METAR :
  • 151831Z AUTO 24016G27KT 2SM -SN SCT017 BKN022 OVC032 M03/M06 A2957 RMK AO2 PK WND 24027/1831 P0000 T10281061

EXPIRED METARs :
  • 151811Z AUTO 26014G22KT 3SM -SN FEW011 OVC017 M03/M06 A2956 RMK AO2 PK WND 26026/1757 P0000 T10281061
  • 151802Z AUTO 26011G26KT 3SM -SN BKN011 OVC017 M03/M06 A2955 RMK AO2 PK WND 26026/1757 P0000 T10281056
  • 151751Z AUTO 24015G24KT 1SM -SN BR BKN009 OVC014 M03/M04 A2955 RMK AO2 PK WND 26028/1707 SLP025 P0001 60004 T10281044 11006 21028 51017
  • 151741Z AUTO 25009G22KT 1 1/4SM -SN BR OVC011 M03/M04 A2954 RMK AO2 PK WND 26028/1707 P0000 T10281044
  • 151730Z AUTO 25011G21KT 2 1/2SM -SN BR OVC011 M02/M04 A2954 RMK AO2 PK WND 26028/1707 CIG 008V013 P0000 T10221044
  • 151715Z AUTO 24013G28KT 4SM -SN BR OVC012 M02/M04 A2953 RMK AO2 PK WND 26028/1707 P0000 T10221044
  • 151659Z AUTO 24015G24KT 2SM -SN OVC012 M02/M04 A2952 RMK AO2 P0000 T10171044
  • 151651Z AUTO 24011G19KT 1 1/2SM -SN BR BKN012 OVC019 M02/M04 A2952 RMK AO2 PK WND 25026/1622 SLP014 P0001 T10171039
  • 151638Z AUTO 25010G17KT 3/4SM -SN BR FEW010 BKN014 OVC021 M02/M03 A2951 RMK AO2 PK WND 25026/1622 P0000 T10171033
  • 151615Z AUTO 25014G23KT 220V280 1 1/2SM -SN BR BKN014 OVC019 M01/M03 A2951 RMK AO2 P0000 T10111033
  • 151551Z AUTO 24010KT 2SM -SN BR OVC013 M01/M03 A2950 RMK AO2 UPB20E25SNB16E20B25 SLP005 P0000 T10111033

TAF KSLK
Valid from the 15 at 18:00 until the 16 at 18:00 UTC


151739Z 1518/1618 25012G25KT 5SM -SN OVC020
TEMPO 1518/1522 1SM -SN BR OVC010
FM152200 27015G30KT P6SM VCSH OVC030
FM160000 27010G20KT P6SM BKN030
FM160600 26010KT P6SM SCT030



MET'MAP, your aeronautical weather chart ! - Copyright ORBIFLY December 2007 - Disclaimer

ORBIFLY MET'MAP TEAM :

Programming & Development : Alexandra Zaïnal
Concept & original design : Baudouin d'Aumeries
Assistance for programming : Marc-Olivier Méhu
Technical & hardware support : Manuel Goepfert

Contact : metmap@orbifly.com




SOURCES & CREDITS :

   NOAA